createdAt,value
2023-05-24T00:00:12.239Z,0.00
2023-05-24T00:01:12.209Z,0.00
2023-05-24T00:02:12.197Z,0.00
2023-05-24T00:03:12.301Z,0.00
2023-05-24T00:04:12.299Z,0.00
2023-05-24T00:05:12.223Z,0.00
2023-05-24T00:06:12.169Z,0.00
2023-05-24T00:07:12.199Z,0.00
2023-05-24T00:08:12.171Z,0.00
2023-05-24T00:09:12.152Z,0.00
2023-05-24T00:10:12.133Z,0.00
2023-05-24T00:11:12.120Z,0.00
2023-05-24T00:12:12.146Z,0.00
2023-05-24T00:13:12.111Z,0.00
2023-05-24T00:14:12.103Z,0.00
2023-05-24T00:15:12.102Z,0.00
2023-05-24T00:16:12.131Z,0.00
2023-05-24T00:17:12.110Z,0.00
2023-05-24T00:18:12.077Z,0.00
2023-05-24T00:19:12.074Z,0.00
2023-05-24T00:20:12.155Z,0.00
2023-05-24T00:21:12.083Z,0.00
2023-05-24T00:22:12.080Z,0.00
2023-05-24T00:23:12.038Z,0.00
2023-05-24T00:24:12.035Z,0.00
2023-05-24T00:25:12.025Z,0.00
2023-05-24T00:26:12.030Z,0.00
2023-05-24T00:27:11.993Z,0.00
2023-05-24T00:28:11.997Z,0.00
2023-05-24T00:29:11.996Z,0.00
2023-05-24T00:30:11.973Z,0.00
2023-05-24T00:31:11.995Z,0.00
2023-05-24T00:32:12.012Z,0.00
2023-05-24T00:33:11.957Z,0.00
2023-05-24T00:34:11.949Z,0.00
2023-05-24T00:35:11.975Z,0.00
2023-05-24T00:36:11.957Z,0.00
2023-05-24T00:37:11.947Z,0.00
2023-05-24T00:38:11.920Z,0.00
2023-05-24T00:39:11.905Z,0.00
2023-05-24T00:40:11.928Z,0.00
2023-05-24T00:41:11.892Z,0.00
2023-05-24T00:42:11.891Z,0.00
2023-05-24T00:43:11.877Z,0.00
2023-05-24T00:44:11.872Z,0.00
2023-05-24T00:45:11.893Z,0.00
2023-05-24T00:46:11.955Z,0.00
2023-05-24T00:47:11.846Z,0.00
2023-05-24T00:48:11.840Z,0.00
2023-05-24T00:49:11.866Z,0.00
2023-05-24T00:50:11.902Z,0.00
2023-05-24T00:51:11.815Z,0.00
2023-05-24T00:52:11.810Z,0.00
2023-05-24T00:53:11.798Z,0.00
2023-05-24T00:54:11.841Z,0.00
2023-05-24T00:55:11.793Z,0.00
2023-05-24T00:56:11.774Z,0.00
2023-05-24T00:57:11.777Z,0.00
2023-05-24T00:58:11.761Z,0.00
2023-05-24T00:59:11.778Z,0.00
2023-05-24T01:00:11.738Z,0.00
2023-05-24T01:01:11.780Z,0.00
2023-05-24T01:02:11.726Z,0.00
2023-05-24T01:03:11.791Z,0.00
2023-05-24T01:04:11.745Z,0.00
2023-05-24T01:05:11.727Z,0.00
2023-05-24T01:06:11.707Z,0.00
2023-05-24T01:07:11.688Z,0.00
2023-05-24T01:08:11.732Z,0.00
2023-05-24T01:09:11.674Z,0.00
2023-05-24T01:10:11.678Z,0.00
2023-05-24T01:11:11.661Z,0.00
2023-05-24T01:12:11.654Z,0.00
2023-05-24T01:13:11.677Z,0.00
2023-05-24T01:14:11.646Z,0.00
2023-05-24T01:15:11.631Z,0.00
2023-05-24T01:16:11.700Z,0.00
2023-05-24T01:17:11.616Z,0.00
2023-05-24T01:18:11.646Z,0.00
2023-05-24T01:19:11.597Z,0.00
2023-05-24T01:20:11.642Z,0.00
2023-05-24T01:21:11.585Z,0.00
2023-05-24T01:22:11.629Z,0.00
2023-05-24T01:23:11.587Z,0.00
2023-05-24T01:24:11.570Z,0.00
2023-05-24T01:25:11.555Z,0.00
2023-05-24T01:26:11.559Z,0.00
2023-05-24T01:27:11.584Z,0.00
2023-05-24T01:28:11.540Z,0.00
2023-05-24T01:29:11.533Z,0.00
2023-05-24T01:30:11.526Z,0.00
2023-05-24T01:31:11.588Z,0.00
2023-05-24T01:32:11.529Z,0.00
2023-05-24T01:33:11.490Z,0.00
2023-05-24T01:34:11.483Z,0.00
2023-05-24T01:35:11.472Z,0.00
2023-05-24T01:36:11.525Z,0.00
2023-05-24T01:37:11.493Z,0.00
2023-05-24T01:38:11.456Z,0.00
2023-05-24T01:39:11.445Z,0.00
2023-05-24T01:40:11.442Z,0.00
2023-05-24T01:41:11.453Z,0.00
2023-05-24T01:42:11.443Z,0.00
2023-05-24T01:43:11.412Z,0.00
2023-05-24T01:44:11.410Z,0.00
2023-05-24T01:45:11.392Z,0.00
2023-05-24T01:46:11.414Z,0.00
2023-05-24T01:47:11.576Z,0.00
2023-05-24T01:48:11.377Z,0.00
2023-05-24T01:49:11.371Z,0.00
2023-05-24T01:50:11.365Z,0.00
2023-05-24T01:51:11.386Z,0.00
2023-05-24T01:52:11.385Z,0.00
2023-05-24T01:53:11.337Z,0.00
2023-05-24T01:54:11.341Z,0.00
2023-05-24T01:55:11.322Z,0.00
2023-05-24T01:56:11.341Z,0.00
2023-05-24T01:57:11.312Z,0.00
2023-05-24T01:58:11.299Z,0.00
2023-05-24T01:59:11.290Z,0.00
2023-05-24T02:00:11.330Z,0.00
2023-05-24T02:01:11.317Z,0.00
2023-05-24T02:02:11.300Z,0.00
2023-05-24T02:03:11.281Z,0.00
2023-05-24T02:04:11.257Z,0.00
2023-05-24T02:05:11.267Z,0.00
2023-05-24T02:06:11.235Z,0.00
2023-05-24T02:07:11.233Z,0.00
2023-05-24T02:08:11.248Z,0.00
2023-05-24T02:09:11.218Z,0.00
2023-05-24T02:10:11.225Z,0.00
2023-05-24T02:11:11.197Z,0.00
2023-05-24T02:12:11.188Z,0.00
2023-05-24T02:13:11.174Z,0.00
2023-05-24T02:14:11.207Z,0.00
2023-05-24T02:15:11.199Z,0.00
2023-05-24T02:16:11.176Z,0.00
2023-05-24T02:17:11.164Z,0.00
2023-05-24T02:18:11.144Z,0.00
2023-05-24T02:19:11.157Z,0.00
2023-05-24T02:20:11.234Z,0.00
2023-05-24T02:21:11.114Z,0.00
2023-05-24T02:22:11.107Z,0.00
2023-05-24T02:23:11.128Z,0.00
2023-05-24T02:24:11.120Z,0.00
2023-05-24T02:25:11.104Z,0.00
2023-05-24T02:26:11.083Z,0.00
2023-05-24T02:27:11.081Z,0.00
2023-05-24T02:28:11.114Z,0.00
2023-05-24T02:29:11.062Z,0.00
2023-05-24T02:30:11.060Z,0.00
2023-05-24T02:31:11.077Z,0.00
2023-05-24T02:32:11.038Z,0.00
2023-05-24T02:33:11.128Z,0.00
2023-05-24T02:34:11.016Z,4.00
2023-05-24T02:35:11.016Z,4.00
2023-05-24T02:36:11.037Z,4.00
2023-05-24T02:37:11.016Z,0.00
2023-05-24T02:38:11.020Z,0.00
2023-05-24T02:39:10.981Z,4.00
2023-05-24T02:40:10.970Z,4.00
2023-05-24T02:41:10.959Z,4.00
2023-05-24T02:42:10.983Z,4.00
2023-05-24T02:43:10.952Z,8.00
2023-05-24T02:44:10.935Z,4.00
2023-05-24T02:45:10.933Z,4.00
2023-05-24T02:46:10.958Z,8.00
2023-05-24T02:47:10.946Z,8.00
2023-05-24T02:48:10.928Z,8.00
2023-05-24T02:49:10.906Z,12.00
2023-05-24T02:50:10.887Z,12.00
2023-05-24T02:51:10.913Z,16.00
2023-05-24T02:52:10.905Z,16.00
2023-05-24T02:53:10.866Z,20.00
2023-05-24T02:54:10.863Z,20.00
2023-05-24T02:55:10.854Z,28.00
2023-05-24T02:56:10.869Z,28.00
2023-05-24T02:57:10.868Z,36.00
2023-05-24T02:58:10.820Z,40.00
2023-05-24T02:59:10.824Z,44.00
2023-05-24T03:00:10.825Z,52.00
2023-05-24T03:01:10.826Z,56.00
2023-05-24T03:02:10.799Z,64.00
2023-05-24T03:03:10.910Z,72.00
2023-05-24T03:04:10.871Z,80.00
2023-05-24T03:05:10.784Z,88.00
2023-05-24T03:06:10.787Z,100.00
2023-05-24T03:07:10.769Z,112.00
2023-05-24T03:08:10.753Z,128.00
2023-05-24T03:09:10.738Z,144.00
2023-05-24T03:10:10.752Z,160.00
2023-05-24T03:11:10.739Z,172.00
2023-05-24T03:12:10.716Z,192.00
2023-05-24T03:13:10.710Z,212.00
2023-05-24T03:14:10.707Z,236.00
2023-05-24T03:15:10.776Z,256.00
2023-05-24T03:16:10.725Z,276.00
2023-05-24T03:17:10.679Z,300.00
2023-05-24T03:18:10.703Z,320.00
2023-05-24T03:19:10.655Z,344.00
2023-05-24T03:20:10.731Z,360.00
2023-05-24T03:21:10.677Z,388.00
2023-05-24T03:22:10.640Z,416.00
2023-05-24T03:23:10.622Z,456.00
2023-05-24T03:24:10.616Z,520.00
2023-05-24T03:25:10.636Z,588.00
2023-05-24T03:26:10.607Z,660.00
2023-05-24T03:27:10.597Z,728.00
2023-05-24T03:28:10.601Z,792.00
2023-05-24T03:29:10.608Z,856.00
2023-05-24T03:30:10.606Z,920.00
2023-05-24T03:31:10.630Z,992.00
2023-05-24T03:32:10.557Z,1068.00
2023-05-24T03:33:10.610Z,1148.00
2023-05-24T03:34:10.567Z,1228.00
2023-05-24T03:35:10.540Z,1304.00
2023-05-24T03:36:10.534Z,1384.00
2023-05-24T03:37:10.546Z,1472.00
2023-05-24T03:38:10.516Z,1552.00
2023-05-24T03:39:10.535Z,1636.00
2023-05-24T03:40:10.503Z,1720.00
2023-05-24T03:41:10.497Z,1816.00
2023-05-24T03:42:10.486Z,1908.00
2023-05-24T03:43:10.498Z,1988.00
2023-05-24T03:44:10.511Z,2052.00
2023-05-24T03:45:10.473Z,2132.00
2023-05-24T03:46:10.480Z,2260.00
2023-05-24T03:47:10.445Z,2492.00
2023-05-24T03:48:10.478Z,2692.00
2023-05-24T03:49:10.430Z,2912.00
2023-05-24T03:50:10.424Z,3112.00
2023-05-24T03:51:10.408Z,4056.00
2023-05-24T03:52:10.403Z,5008.00
2023-05-24T03:53:10.418Z,5812.00
2023-05-24T03:54:10.389Z,6348.00
2023-05-24T03:55:10.395Z,6684.00
2023-05-24T03:56:10.366Z,6816.00
2023-05-24T03:57:10.366Z,6040.00
2023-05-24T03:58:10.377Z,6368.00
2023-05-24T03:59:10.353Z,7056.00
2023-05-24T04:00:10.336Z,6312.00
2023-05-24T04:01:18.837Z,6432.00
2023-05-24T04:02:12.325Z,5476.00
2023-05-24T04:03:10.398Z,5204.00
2023-05-24T04:04:10.337Z,5792.00
2023-05-24T04:05:10.295Z,5472.00
2023-05-24T04:06:10.291Z,5132.00
2023-05-24T04:07:10.312Z,4892.00
2023-05-24T04:08:10.301Z,4752.00
2023-05-24T04:09:10.278Z,4672.00
2023-05-24T04:10:10.257Z,4548.00
2023-05-24T04:11:10.250Z,4628.00
2023-05-24T04:12:10.274Z,4980.00
2023-05-24T04:13:10.265Z,5312.00
2023-05-24T04:14:10.223Z,5820.00
2023-05-24T04:15:10.241Z,6372.00
2023-05-24T04:16:10.214Z,7152.00
2023-05-24T04:17:10.347Z,8148.00
2023-05-24T04:18:10.313Z,11880.00
2023-05-24T04:19:10.194Z,19776.00
2023-05-24T04:20:10.288Z,21888.00
2023-05-24T04:21:10.173Z,23776.00
2023-05-24T04:22:10.191Z,26048.00
2023-05-24T04:23:10.150Z,27264.00
2023-05-24T04:24:10.141Z,27936.00
2023-05-24T04:25:10.249Z,28480.00
2023-05-24T04:26:10.129Z,29568.00
2023-05-24T04:27:10.149Z,30912.00
2023-05-24T04:28:10.131Z,31328.00
2023-05-24T04:29:10.126Z,31872.00
2023-05-24T04:30:10.093Z,31552.00
2023-05-24T04:31:10.177Z,28960.00
2023-05-24T04:32:10.117Z,26496.00
2023-05-24T04:33:10.170Z,18368.00
2023-05-24T04:34:10.064Z,7700.00
2023-05-24T04:35:10.063Z,6356.00
2023-05-24T04:36:10.091Z,5320.00
2023-05-24T04:37:10.046Z,4520.00
2023-05-24T04:38:10.034Z,3948.00
2023-05-24T04:39:10.046Z,3564.00
2023-05-24T04:40:10.026Z,3256.00
2023-05-24T04:41:10.055Z,3024.00
2023-05-24T04:42:10.024Z,2844.00
2023-05-24T04:43:10.000Z,2676.00
2023-05-24T04:44:09.992Z,2492.00
2023-05-24T04:45:09.996Z,2372.00
2023-05-24T04:46:10.012Z,2308.00
2023-05-24T04:47:09.970Z,2220.00
2023-05-24T04:48:09.965Z,2148.00
2023-05-24T04:49:09.957Z,2060.00
2023-05-24T04:50:10.005Z,1932.00
2023-05-24T04:51:09.963Z,1840.00
2023-05-24T04:52:09.924Z,1828.00
2023-05-24T04:53:09.929Z,1852.00
2023-05-24T04:54:09.910Z,1892.00
2023-05-24T04:55:09.927Z,1944.00
2023-05-24T04:56:09.899Z,2032.00
2023-05-24T04:57:09.884Z,2096.00
2023-05-24T04:58:10.810Z,2124.00
2023-05-24T04:59:09.884Z,2164.00
2023-05-24T05:00:09.892Z,2248.00
2023-05-24T05:01:09.855Z,2364.00
2023-05-24T05:02:09.923Z,2424.00
2023-05-24T05:03:09.918Z,2464.00
2023-05-24T05:04:09.883Z,2460.00
2023-05-24T05:05:09.850Z,2460.00
2023-05-24T05:06:09.815Z,2400.00
2023-05-24T05:07:09.815Z,2452.00
2023-05-24T05:08:09.876Z,2544.00
2023-05-24T05:09:09.813Z,2664.00
2023-05-24T05:10:09.822Z,2772.00
2023-05-24T05:11:09.790Z,2948.00
2023-05-24T05:12:09.773Z,3196.00
2023-05-24T05:13:09.769Z,3568.00
2023-05-24T05:14:09.912Z,4144.00
2023-05-24T05:15:09.752Z,4688.00
2023-05-24T05:16:09.774Z,5156.00
2023-05-24T05:17:09.729Z,4760.00
2023-05-24T05:18:09.766Z,4588.00
2023-05-24T05:19:09.745Z,4724.00
2023-05-24T05:20:09.736Z,5080.00
2023-05-24T05:21:09.701Z,5460.00
2023-05-24T05:22:09.695Z,5924.00
2023-05-24T05:23:09.701Z,6524.00
2023-05-24T05:24:09.695Z,6204.00
2023-05-24T05:25:09.661Z,6164.00
2023-05-24T05:26:09.669Z,6704.00
2023-05-24T05:27:09.660Z,7568.00
2023-05-24T05:28:09.661Z,8268.00
2023-05-24T05:29:09.654Z,8444.00
2023-05-24T05:30:09.640Z,8528.00
2023-05-24T05:31:09.619Z,8820.00
2023-05-24T05:32:09.672Z,7124.00
2023-05-24T05:33:09.785Z,6272.00
2023-05-24T05:34:09.601Z,5752.00
2023-05-24T05:35:09.590Z,5388.00
2023-05-24T05:36:09.579Z,5084.00
2023-05-24T05:37:09.570Z,4824.00
2023-05-24T05:38:09.625Z,4852.00
2023-05-24T05:39:09.584Z,4956.00
2023-05-24T05:40:09.545Z,5064.00
2023-05-24T05:41:09.536Z,5348.00
2023-05-24T05:42:09.563Z,5792.00
2023-05-24T05:43:09.552Z,6240.00
2023-05-24T05:44:09.523Z,5976.00
2023-05-24T05:45:09.502Z,5100.00
2023-05-24T05:46:09.536Z,4628.00
2023-05-24T05:47:09.535Z,4380.00
2023-05-24T05:48:09.546Z,4324.00
2023-05-24T05:49:09.484Z,4312.00
2023-05-24T05:50:09.474Z,3784.00
2023-05-24T05:51:09.459Z,3548.00
2023-05-24T05:52:09.483Z,3404.00
2023-05-24T05:53:09.445Z,3488.00
2023-05-24T05:54:09.438Z,3892.00
2023-05-24T05:55:09.435Z,4316.00
2023-05-24T05:56:09.435Z,4600.00
2023-05-24T05:57:09.460Z,5020.00
2023-05-24T05:58:10.412Z,6100.00
2023-05-24T05:59:09.406Z,6804.00
2023-05-24T06:00:09.397Z,6588.00
2023-05-24T06:01:09.415Z,6336.00
2023-05-24T06:02:09.502Z,6120.00
2023-05-24T06:03:09.471Z,6044.00
2023-05-24T06:04:09.477Z,6112.00
2023-05-24T06:05:09.365Z,6084.00
2023-05-24T06:06:09.369Z,5992.00
2023-05-24T06:07:09.342Z,5968.00
2023-05-24T06:08:09.354Z,5852.00
2023-05-24T06:09:09.326Z,5876.00
2023-05-24T06:10:09.322Z,5732.00
2023-05-24T06:11:09.329Z,5304.00
2023-05-24T06:12:09.300Z,4724.00
2023-05-24T06:13:09.299Z,4428.00
2023-05-24T06:14:09.288Z,4320.00
2023-05-24T06:15:09.286Z,4312.00
2023-05-24T06:16:09.343Z,4428.00
2023-05-24T06:17:09.286Z,4560.00
2023-05-24T06:18:09.255Z,4704.00
2023-05-24T06:19:09.236Z,4804.00
2023-05-24T06:20:09.291Z,4812.00
2023-05-24T06:21:09.252Z,4796.00
2023-05-24T06:22:09.223Z,4740.00
2023-05-24T06:23:09.209Z,4720.00
2023-05-24T06:24:09.201Z,4772.00
2023-05-24T06:25:09.226Z,4840.00
2023-05-24T06:26:09.190Z,4988.00
2023-05-24T06:27:09.195Z,5296.00
2023-05-24T06:28:09.170Z,5632.00
2023-05-24T06:29:09.157Z,5884.00
2023-05-24T06:30:09.193Z,6044.00
2023-05-24T06:31:09.200Z,6312.00
2023-05-24T06:32:09.135Z,6620.00
2023-05-24T06:33:09.129Z,6460.00
2023-05-24T06:34:09.148Z,6252.00
2023-05-24T06:35:09.135Z,6292.00
2023-05-24T06:36:09.110Z,6544.00
2023-05-24T06:37:09.103Z,6236.00
2023-05-24T06:38:09.109Z,5996.00
2023-05-24T06:39:09.111Z,5800.00
2023-05-24T06:40:09.081Z,5688.00
2023-05-24T06:41:09.067Z,5732.00
2023-05-24T06:42:09.082Z,5784.00
2023-05-24T06:43:09.051Z,5716.00
2023-05-24T06:44:09.064Z,5592.00
2023-05-24T06:45:09.038Z,5604.00
2023-05-24T06:46:09.028Z,6076.00
2023-05-24T06:47:09.045Z,6236.00
2023-05-24T06:48:09.074Z,6308.00
2023-05-24T06:49:09.084Z,6072.00
2023-05-24T06:50:09.010Z,5868.00
2023-05-24T06:51:08.982Z,5608.00
2023-05-24T06:52:08.998Z,5480.00
2023-05-24T06:53:09.016Z,5460.00
2023-05-24T06:54:08.968Z,5520.00
2023-05-24T06:55:09.012Z,5720.00
2023-05-24T06:56:08.946Z,5972.00
2023-05-24T06:57:08.968Z,6216.00
2023-05-24T06:58:09.023Z,6404.00
2023-05-24T06:59:08.931Z,6768.00
2023-05-24T07:00:08.922Z,7004.00
2023-05-24T07:01:08.974Z,7068.00
2023-05-24T07:02:08.918Z,7036.00
2023-05-24T07:03:08.940Z,6968.00
2023-05-24T07:04:08.911Z,6920.00
2023-05-24T07:05:08.881Z,6808.00
2023-05-24T07:06:08.872Z,6776.00
2023-05-24T07:07:08.892Z,6964.00
2023-05-24T07:08:08.877Z,7100.00
2023-05-24T07:09:08.844Z,7144.00
2023-05-24T07:10:08.903Z,7180.00
2023-05-24T07:11:08.881Z,7112.00
2023-05-24T07:12:09.112Z,7020.00
2023-05-24T07:13:08.820Z,6912.00
2023-05-24T07:14:08.817Z,6808.00
2023-05-24T07:15:08.807Z,6704.00
2023-05-24T07:16:08.796Z,6624.00
2023-05-24T07:17:08.906Z,6556.00
2023-05-24T07:18:08.929Z,6504.00
2023-05-24T07:19:08.762Z,6468.00
2023-05-24T07:20:08.780Z,6444.00
2023-05-24T07:21:08.746Z,6448.00
2023-05-24T07:22:08.778Z,6464.00
2023-05-24T07:23:08.735Z,6580.00
2023-05-24T07:24:08.724Z,6780.00
2023-05-24T07:25:08.718Z,7052.00
2023-05-24T07:26:08.735Z,7360.00
2023-05-24T07:27:08.741Z,7704.00
2023-05-24T07:28:08.696Z,8100.00
2023-05-24T07:29:08.688Z,8492.00
2023-05-24T07:30:19.729Z,9004.00
2023-05-24T07:31:10.695Z,9684.00
2023-05-24T07:32:08.728Z,10864.00
2023-05-24T07:33:08.686Z,12600.00
2023-05-24T07:34:08.677Z,12832.00
2023-05-24T07:35:08.642Z,14084.00
2023-05-24T07:36:08.657Z,15704.00
2023-05-24T07:37:08.625Z,17344.00
2023-05-24T07:38:08.622Z,18976.00
2023-05-24T07:39:08.611Z,22976.00
2023-05-24T07:40:08.629Z,25664.00
2023-05-24T07:41:08.619Z,47616.00
2023-05-24T07:42:08.592Z,41888.00
2023-05-24T07:43:08.596Z,29536.00
2023-05-24T07:44:08.579Z,32640.00
2023-05-24T07:45:08.587Z,32480.00
2023-05-24T07:46:08.578Z,50784.00
2023-05-24T07:47:08.546Z,63264.00
2023-05-24T07:48:08.611Z,28000.00
2023-05-24T07:49:08.541Z,23200.00
2023-05-24T07:50:08.550Z,19200.00
2023-05-24T07:51:08.513Z,18208.00
2023-05-24T07:52:08.513Z,17632.00
2023-05-24T07:53:08.512Z,19712.00
2023-05-24T07:54:08.525Z,29952.00
2023-05-24T07:55:08.502Z,18976.00
2023-05-24T07:56:08.474Z,17760.00
2023-05-24T07:57:09.426Z,18944.00
2023-05-24T07:58:09.455Z,34464.00
2023-05-24T07:59:08.479Z,20448.00
2023-05-24T08:00:08.468Z,17376.00
2023-05-24T08:01:08.434Z,16576.00
2023-05-24T08:02:08.423Z,17472.00
2023-05-24T08:03:08.610Z,18016.00
2023-05-24T08:04:08.530Z,16160.00
2023-05-24T08:05:08.406Z,16032.00
2023-05-24T08:06:08.395Z,16544.00
2023-05-24T08:07:10.767Z,17216.00
2023-05-24T08:08:08.379Z,17536.00
2023-05-24T08:09:08.399Z,18240.00
2023-05-24T08:10:08.366Z,20544.00
2023-05-24T08:11:08.422Z,22016.00
2023-05-24T08:12:08.356Z,46528.00
2023-05-24T08:13:08.386Z,31936.00
2023-05-24T08:14:08.355Z,25152.00
2023-05-24T08:15:08.329Z,50816.00
2023-05-24T08:16:08.353Z,46240.00
2023-05-24T08:17:08.310Z,20032.00
2023-05-24T08:18:08.373Z,17728.00
2023-05-24T08:19:08.285Z,17856.00
2023-05-24T08:20:08.328Z,19840.00
2023-05-24T08:21:08.270Z,23200.00
2023-05-24T08:22:08.271Z,23584.00
2023-05-24T08:23:08.278Z,37472.00
2023-05-24T08:24:09.626Z,21888.00
2023-05-24T08:25:09.242Z,16640.00
2023-05-24T08:26:08.243Z,16160.00
2023-05-24T08:27:08.248Z,17632.00
2023-05-24T08:28:08.321Z,20544.00
2023-05-24T08:29:08.212Z,28128.00
2023-05-24T08:30:08.209Z,37664.00
2023-05-24T08:31:08.197Z,40768.00
2023-05-24T08:32:08.314Z,28608.00
2023-05-24T08:33:08.227Z,40896.00
2023-05-24T08:34:08.182Z,40704.00
2023-05-24T08:35:20.265Z,40192.00
2023-05-24T08:36:10.178Z,38624.00
2023-05-24T08:37:08.176Z,34048.00
2023-05-24T08:38:08.159Z,30976.00
2023-05-24T08:39:08.151Z,22240.00
2023-05-24T08:40:08.132Z,35616.00
2023-05-24T08:41:08.128Z,30944.00
2023-05-24T08:42:10.089Z,28800.00
2023-05-24T08:43:09.119Z,36928.00
2023-05-24T08:44:08.121Z,24320.00
2023-05-24T08:45:08.104Z,21568.00
2023-05-24T08:46:08.148Z,18528.00
2023-05-24T08:47:08.102Z,17472.00
2023-05-24T08:48:08.163Z,17632.00
2023-05-24T08:49:08.184Z,17920.00
2023-05-24T08:50:08.058Z,19328.00
2023-05-24T08:51:08.092Z,32320.00
2023-05-24T08:52:08.041Z,18752.00
2023-05-24T08:53:08.037Z,18432.00
2023-05-24T08:54:08.021Z,18240.00
2023-05-24T08:55:08.038Z,17984.00
2023-05-24T08:56:08.039Z,19296.00
2023-05-24T08:57:08.009Z,22944.00
2023-05-24T08:58:08.003Z,30496.00
2023-05-24T08:59:07.992Z,19168.00
2023-05-24T09:00:08.006Z,18368.00
2023-05-24T09:01:08.042Z,17792.00
2023-05-24T09:02:07.992Z,16320.00
2023-05-24T09:03:08.072Z,14748.00
2023-05-24T09:04:07.974Z,13656.00
2023-05-24T09:05:07.972Z,12700.00
2023-05-24T09:06:07.940Z,11756.00
2023-05-24T09:07:07.927Z,11064.00
2023-05-24T09:08:07.924Z,10596.00
2023-05-24T09:09:07.911Z,10392.00
2023-05-24T09:10:07.955Z,10420.00
2023-05-24T09:11:07.898Z,10548.00
2023-05-24T09:12:07.889Z,10916.00
2023-05-24T09:13:07.880Z,11368.00
2023-05-24T09:14:07.920Z,12004.00
2023-05-24T09:15:08.125Z,12812.00
2023-05-24T09:16:07.915Z,13620.00
2023-05-24T09:17:07.857Z,14548.00
2023-05-24T09:18:07.937Z,21344.00
2023-05-24T09:19:07.878Z,22528.00
2023-05-24T09:20:07.832Z,21472.00
2023-05-24T09:21:07.815Z,21184.00
2023-05-24T09:22:07.817Z,21248.00
2023-05-24T09:23:07.796Z,21696.00
2023-05-24T09:24:07.810Z,21984.00
2023-05-24T09:25:07.783Z,20896.00
2023-05-24T09:26:07.776Z,18080.00
2023-05-24T09:27:07.768Z,19456.00
2023-05-24T09:28:07.757Z,22400.00
2023-05-24T09:29:07.774Z,23584.00
2023-05-24T09:30:07.733Z,19264.00
2023-05-24T09:31:08.279Z,18528.00
2023-05-24T09:32:08.726Z,17760.00
2023-05-24T09:33:07.757Z,17568.00
2023-05-24T09:34:07.737Z,17600.00
2023-05-24T09:35:07.714Z,18208.00
2023-05-24T09:36:07.694Z,18400.00
2023-05-24T09:37:07.681Z,18368.00
2023-05-24T09:38:07.696Z,18656.00
2023-05-24T09:39:07.665Z,18784.00
2023-05-24T09:40:07.659Z,18912.00
2023-05-24T09:41:08.783Z,18976.00
2023-05-24T09:42:07.662Z,18560.00
2023-05-24T09:43:07.698Z,17568.00
2023-05-24T09:44:07.634Z,16736.00
2023-05-24T09:45:07.624Z,15152.00
2023-05-24T09:46:07.619Z,13632.00
2023-05-24T09:47:07.694Z,12152.00
2023-05-24T09:48:07.706Z,11028.00
2023-05-24T09:49:07.609Z,10232.00
2023-05-24T09:50:07.640Z,9664.00
2023-05-24T09:51:07.689Z,9280.00
2023-05-24T09:52:07.654Z,9092.00
2023-05-24T09:53:07.560Z,9112.00
2023-05-24T09:54:07.550Z,9048.00
2023-05-24T09:55:07.554Z,8900.00
2023-05-24T09:56:07.555Z,8756.00
2023-05-24T09:57:07.556Z,8856.00
2023-05-24T09:58:07.543Z,8904.00
2023-05-24T09:59:07.524Z,8932.00
2023-05-24T10:00:07.529Z,9092.00
2023-05-24T10:01:07.557Z,9128.00
2023-05-24T10:02:07.533Z,9048.00
2023-05-24T10:03:07.567Z,9024.00
2023-05-24T10:04:09.877Z,9116.00
2023-05-24T10:05:08.476Z,9280.00
2023-05-24T10:06:07.487Z,9496.00
2023-05-24T10:07:07.480Z,9672.00
2023-05-24T10:08:07.448Z,9812.00
2023-05-24T10:09:07.470Z,9944.00
2023-05-24T10:10:07.675Z,10128.00
2023-05-24T10:11:09.201Z,10328.00
2023-05-24T10:12:07.408Z,10484.00
2023-05-24T10:13:07.405Z,10620.00
2023-05-24T10:14:07.389Z,10772.00
2023-05-24T10:15:07.387Z,10916.00
2023-05-24T10:16:07.462Z,11076.00
2023-05-24T10:17:07.414Z,11300.00
2023-05-24T10:18:08.191Z,11464.00
2023-05-24T10:19:07.465Z,11592.00
2023-05-24T10:20:07.461Z,11692.00
2023-05-24T10:21:07.415Z,11844.00
2023-05-24T10:22:07.335Z,12016.00
2023-05-24T10:23:07.318Z,12188.00
2023-05-24T10:24:08.977Z,12400.00
2023-05-24T10:25:07.336Z,12592.00
2023-05-24T10:26:07.309Z,12824.00
2023-05-24T10:27:07.307Z,13212.00
2023-05-24T10:28:08.155Z,13580.00
2023-05-24T10:29:07.294Z,13988.00
2023-05-24T10:30:10.116Z,13756.00
2023-05-24T10:31:09.314Z,13532.00
2023-05-24T10:32:07.248Z,13344.00
2023-05-24T10:33:07.256Z,13324.00
2023-05-24T10:34:08.736Z,12680.00
2023-05-24T10:35:08.253Z,12196.00
2023-05-24T10:36:09.474Z,11820.00
2023-05-24T10:37:08.208Z,11576.00
2023-05-24T10:38:07.554Z,11500.00
2023-05-24T10:39:07.252Z,11588.00
2023-05-24T10:40:07.230Z,11628.00
2023-05-24T10:41:07.192Z,11676.00
2023-05-24T10:42:09.591Z,11832.00
2023-05-24T10:43:08.154Z,12156.00
2023-05-24T10:44:10.131Z,12348.00
2023-05-24T10:45:08.132Z,12384.00
2023-05-24T10:46:07.137Z,12520.00
2023-05-24T10:47:07.150Z,12672.00
2023-05-24T10:48:07.221Z,12860.00
2023-05-24T10:49:07.128Z,13080.00
2023-05-24T10:50:07.108Z,13144.00
2023-05-24T10:51:07.093Z,13204.00
2023-05-24T10:52:07.101Z,13408.00
2023-05-24T10:53:07.121Z,13748.00
2023-05-24T10:54:08.996Z,13952.00
2023-05-24T10:55:08.081Z,14036.00
2023-05-24T10:56:07.060Z,13984.00
2023-05-24T10:57:07.058Z,13932.00
2023-05-24T10:58:07.061Z,14032.00
2023-05-24T10:59:07.060Z,14172.00
2023-05-24T11:00:09.064Z,14292.00
2023-05-24T11:01:07.017Z,14148.00
2023-05-24T11:02:07.082Z,14020.00
2023-05-24T11:03:07.083Z,13948.00
2023-05-24T11:04:06.991Z,13804.00
2023-05-24T11:05:07.005Z,13540.00
2023-05-24T11:06:07.066Z,13124.00
2023-05-24T11:07:06.969Z,13692.00
2023-05-24T11:08:06.999Z,12676.00
2023-05-24T11:09:06.959Z,14404.00
2023-05-24T11:10:06.973Z,15392.00
2023-05-24T11:11:22.285Z,13616.00
2023-05-24T11:12:08.972Z,15344.00
2023-05-24T11:13:06.963Z,16000.00
2023-05-24T11:14:06.917Z,13876.00
2023-05-24T11:15:06.905Z,13424.00
2023-05-24T11:16:06.932Z,13132.00
2023-05-24T11:17:06.948Z,12700.00
2023-05-24T11:18:06.939Z,12160.00
2023-05-24T11:19:06.897Z,12008.00
2023-05-24T11:20:06.907Z,12420.00
2023-05-24T11:21:06.880Z,12912.00
2023-05-24T11:22:06.912Z,13008.00
2023-05-24T11:23:06.847Z,13076.00
2023-05-24T11:24:06.840Z,13824.00
2023-05-24T11:25:06.850Z,14552.00
2023-05-24T11:26:06.850Z,14908.00
2023-05-24T11:27:06.841Z,14684.00
2023-05-24T11:28:06.865Z,16864.00
2023-05-24T11:29:07.694Z,15968.00
2023-05-24T11:30:06.804Z,16128.00
2023-05-24T11:31:06.924Z,15744.00
2023-05-24T11:32:06.805Z,13228.00
2023-05-24T11:33:06.825Z,12756.00
2023-05-24T11:34:06.777Z,12508.00
2023-05-24T11:35:06.765Z,11996.00
2023-05-24T11:36:06.780Z,11316.00
2023-05-24T11:37:06.752Z,11128.00
2023-05-24T11:38:06.731Z,11132.00
2023-05-24T11:39:06.724Z,11144.00
2023-05-24T11:40:06.738Z,11664.00
2023-05-24T11:41:07.722Z,12768.00
2023-05-24T11:42:06.812Z,12668.00
2023-05-24T11:43:06.688Z,12512.00
2023-05-24T11:44:06.693Z,12296.00
2023-05-24T11:45:06.703Z,12064.00
2023-05-24T11:46:06.707Z,11888.00
2023-05-24T11:47:06.662Z,11896.00
2023-05-24T11:48:06.715Z,11968.00
2023-05-24T11:49:06.654Z,12160.00
2023-05-24T11:50:06.660Z,12380.00
2023-05-24T11:51:06.624Z,12476.00
2023-05-24T11:52:06.624Z,12448.00
2023-05-24T11:53:06.620Z,12164.00
2023-05-24T11:54:06.627Z,12652.00
2023-05-24T11:55:06.630Z,12652.00
2023-05-24T11:56:06.577Z,12512.00
2023-05-24T11:57:07.593Z,12352.00
2023-05-24T11:58:06.588Z,12424.00
2023-05-24T11:59:06.593Z,12228.00
2023-05-24T12:00:06.574Z,12492.00
2023-05-24T12:01:06.556Z,10364.00
2023-05-24T12:02:06.612Z,10088.00
2023-05-24T12:03:06.590Z,9780.00
2023-05-24T12:04:06.692Z,9728.00
2023-05-24T12:05:06.697Z,9836.00
2023-05-24T12:06:06.508Z,9740.00
2023-05-24T12:07:06.508Z,9560.00
2023-05-24T12:08:06.494Z,9744.00
2023-05-24T12:09:06.516Z,11040.00
2023-05-24T12:10:06.480Z,9652.00
2023-05-24T12:11:06.484Z,9736.00
2023-05-24T12:12:06.468Z,9264.00
2023-05-24T12:13:06.478Z,11836.00
2023-05-24T12:14:06.478Z,10052.00